Flight Track Log - Related Links

Times and Time Zones

All times are in EDT time to prevent confusion due to time zone crossing. See the TAM3714 flight status page for this flight to view local times or setup timezone preferences in your user account.

Time Position Orientation Groundspeed Altitude Reporting Facility
EDT Latitude Longitude Course Direction KTS MPH feet Rate Location/Type
Mon 09:19:00 PM -19.7046 -47.3060 351° North  Level Estimated
Mon 09:20:00 PM -19.6193 -47.3198 351° North  Level Estimated
Mon 09:21:00 PM -19.5340 -47.3335 351° North  Level Estimated
Mon 09:22:00 PM -19.4487 -47.3472 351° North  Level Estimated
Mon 09:23:00 PM -19.3634 -47.3610 351° North  Level Estimated
Mon 09:24:00 PM -19.2782 -47.3747 351° North  Level Estimated
Mon 09:25:00 PM -19.1929 -47.3884 351° North  Level Estimated
Mon 09:26:00 PM -19.1076 -47.4021 351° North  Level Estimated
Mon 09:27:00 PM -19.0223 -47.4157 351° North  Level Estimated
Mon 09:28:00 PM -18.9370 -47.4294 351° North  Level Estimated
Mon 09:29:00 PM -18.8517 -47.4430 351° North  Level Estimated
Mon 09:30:00 PM -18.7664 -47.4566 351° North  Level Estimated
Mon 09:31:00 PM -18.6811 -47.4702 351° North  Level Estimated
Mon 09:32:00 PM -18.5958 -47.4838 351° North  Level Estimated
Mon 09:33:00 PM -18.5105 -47.4974 351° North  Level Estimated
Mon 09:34:00 PM -18.4252 -47.5110 351° North  Level Estimated
Mon 09:35:00 PM -18.3399 -47.5246 351° North  Level Estimated
Mon 09:36:00 PM -18.2546 -47.5381 351° North  Level Estimated
Mon 09:37:00 PM -18.1692 -47.5516 351° North  Level Estimated
Mon 09:38:00 PM -18.0839 -47.5651 351° North  Level Estimated
Mon 09:39:00 PM -17.9986 -47.5786 351° North  Level Estimated
Mon 09:40:00 PM -17.9133 -47.5921 351° North  Level Estimated
Mon 09:41:00 PM -17.8280 -47.6056 351° North  Level Estimated
Mon 09:42:00 PM -17.7427 -47.6191 351° North  Level Estimated
Mon 09:43:00 PM -17.6574 -47.6325 351° North  Level Estimated
Mon 09:44:00 PM -17.5721 -47.6460 351° North  Level Estimated
Mon 09:45:00 PM -17.4868 -47.6594 351° North  Level Estimated
Mon 09:46:00 PM -17.4014 -47.6728 351° North  Level Estimated
Mon 09:47:00 PM -17.3161 -47.6862 351° North  Level Estimated
Mon 09:48:00 PM -17.2308 -47.6996 351° North  Level Estimated
Mon 09:49:00 PM -17.1455 -47.7130 351° North  Level Estimated
Mon 09:50:00 PM -17.0602 -47.7263 351° North  Level Estimated
Mon 09:51:00 PM -16.9748 -47.7397 351° North  Level Estimated
Mon 09:52:00 PM -16.8895 -47.7530 351° North  Level Estimated
Mon 09:53:00 PM -16.8042 -47.7664 351° North  Level Estimated
Mon 09:54:00 PM -16.7189 -47.7797 351° North  Level Estimated
Mon 09:55:00 PM -16.6336 -47.7930 352° North  Level Estimated
Mon 09:56:00 PM -16.5482 -47.8063 352° North  Level Estimated
Mon 09:57:00 PM -16.4629 -47.8195 352° North  Level Estimated
Mon 09:58:00 PM -16.3776 -47.8328 352° North  Level Estimated
Mon 09:59:00 PM -16.2923 -47.8461 352° North  Level Estimated
Mon 10:00:00 PM -16.2069 -47.8593 352° North  Level Estimated
Mon 10:01:00 PM -16.1216 -47.8726 352° North  Level Estimated
Mon 10:02:00 PM -16.0363 -47.8858 352° North  Level Estimated
Mon 10:03:00 PM -15.9509 -47.8990 352° North  Level Estimated
Mon 10:04:00 PM -15.8656 -47.9122 352° North  Level Estimated
Mon 10:05:00 PM -15.8626 -47.9127 352° North  Level Estimated
Mon 10:06:00 PM -15.8626 -47.9127 128° Southeast  Level Estimated
Mon 10:07:00 PM -15.8626 -47.9127 128° Southeast  Level Estimated
Mon 10:08:00 PM -15.8626 -47.9127 128° Southeast  Level Estimated
Mon 10:09:00 PM -15.8626 -47.9127 128° Southeast  Level Estimated
Mon 10:10:00 PM -15.8626 -47.9127 128° Southeast  Level Estimated
Mon 10:11:00 PM -15.8626 -47.9127 128° Southeast  Level Estimated
Mon 10:12:00 PM -15.8626 -47.9127 128° Southeast  Level Estimated
Mon 10:13:00 PM -15.8626 -47.9127 128° Southeast  Level Estimated
Mon 10:14:00 PM -15.8626 -47.9127 128° Southeast  Level Estimated
Mon 10:15:00 PM -15.8626 -47.9127 128° Southeast  Level Estimated
Mon 10:16:00 PM -15.8626 -47.9127 128° Southeast  Level Estimated
Mon 10:17:00 PM -15.8626 -47.9127 128° Southeast  Level Estimated
Mon 10:18:00 PM -15.8626 -47.9127 128° Southeast  Level Estimated
Mon 10:19:00 PM -15.8626 -47.9127 128° Southeast  Level Estimated
Mon 10:20:00 PM -15.8626 -47.9127 128° Southeast  Level Estimated

Login

Don't have an account? Register now (free) for customized features, flight alerts, and more!